sensor_id;sensor_type;location;lat;lon;timestamp;temperature;humidity
36790;DHT22;22740;52.182;8.780;2023-08-30T00:01:51;14.70;99.90
36790;DHT22;22740;52.182;8.780;2023-08-30T00:07:55;14.70;99.90
36790;DHT22;22740;52.182;8.780;2023-08-30T00:14:04;14.60;99.90
36790;DHT22;22740;52.182;8.780;2023-08-30T00:20:12;14.40;99.90
36790;DHT22;22740;52.182;8.780;2023-08-30T00:26:14;14.30;99.90
36790;DHT22;22740;52.182;8.780;2023-08-30T00:32:16;14.30;99.90
36790;DHT22;22740;52.182;8.780;2023-08-30T00:38:18;14.30;99.90
36790;DHT22;22740;52.182;8.780;2023-08-30T00:44:20;14.40;99.90
36790;DHT22;22740;52.182;8.780;2023-08-30T00:50:22;14.50;99.90
36790;DHT22;22740;52.182;8.780;2023-08-30T00:56:24;14.60;99.90
36790;DHT22;22740;52.182;8.780;2023-08-30T01:02:28;14.70;99.90
36790;DHT22;22740;52.182;8.780;2023-08-30T01:08:30;14.70;99.90
36790;DHT22;22740;52.182;8.780;2023-08-30T01:14:55;14.80;99.90
36790;DHT22;22740;52.182;8.780;2023-08-30T01:20:55;14.70;99.90
36790;DHT22;22740;52.182;8.780;2023-08-30T01:27:08;14.70;99.90
36790;DHT22;22740;52.182;8.780;2023-08-30T01:33:10;14.80;99.90
36790;DHT22;22740;52.182;8.780;2023-08-30T01:39:14;14.90;99.90
36790;DHT22;22740;52.182;8.780;2023-08-30T01:45:17;14.70;99.90
36790;DHT22;22740;52.182;8.780;2023-08-30T01:51:20;14.60;99.90
36790;DHT22;22740;52.182;8.780;2023-08-30T01:57:23;14.50;99.90
36790;DHT22;22740;52.182;8.780;2023-08-30T02:03:25;14.50;99.90
36790;DHT22;22740;52.182;8.780;2023-08-30T02:09:28;14.50;99.90
36790;DHT22;22740;52.182;8.780;2023-08-30T02:15:32;14.60;99.90
36790;DHT22;22740;52.182;8.780;2023-08-30T02:21:36;14.50;99.90
36790;DHT22;22740;52.182;8.780;2023-08-30T02:27:39;14.60;99.90
36790;DHT22;22740;52.182;8.780;2023-08-30T02:33:40;14.60;99.90
36790;DHT22;22740;52.182;8.780;2023-08-30T02:39:42;14.70;99.90
36790;DHT22;22740;52.182;8.780;2023-08-30T02:45:44;14.60;99.90
36790;DHT22;22740;52.182;8.780;2023-08-30T02:51:47;14.60;99.90
36790;DHT22;22740;52.182;8.780;2023-08-30T02:57:50;14.60;99.90
36790;DHT22;22740;52.182;8.780;2023-08-30T03:03:54;14.60;99.90
36790;DHT22;22740;52.182;8.780;2023-08-30T03:09:56;14.60;99.90
36790;DHT22;22740;52.182;8.780;2023-08-30T03:15:58;14.60;99.90
36790;DHT22;22740;52.182;8.780;2023-08-30T03:22:00;14.50;99.90
36790;DHT22;22740;52.182;8.780;2023-08-30T03:28:02;14.50;99.90
36790;DHT22;22740;52.182;8.780;2023-08-30T03:34:04;14.50;99.90
36790;DHT22;22740;52.182;8.780;2023-08-30T03:40:06;14.50;99.90
36790;DHT22;22740;52.182;8.780;2023-08-30T03:46:08;14.50;99.90
36790;DHT22;22740;52.182;8.780;2023-08-30T03:52:13;14.40;99.90
36790;DHT22;22740;52.182;8.780;2023-08-30T03:58:18;14.30;99.90
36790;DHT22;22740;52.182;8.780;2023-08-30T04:04:20;14.20;99.90
36790;DHT22;22740;52.182;8.780;2023-08-30T04:10:22;14.10;99.90
36790;DHT22;22740;52.182;8.780;2023-08-30T04:16:24;14.10;99.90
36790;DHT22;22740;52.182;8.780;2023-08-30T04:22:26;14.20;99.90
36790;DHT22;22740;52.182;8.780;2023-08-30T04:28:28;14.20;99.90
36790;DHT22;22740;52.182;8.780;2023-08-30T04:34:30;14.20;99.90
36790;DHT22;22740;52.182;8.780;2023-08-30T04:40:32;14.10;99.90
36790;DHT22;22740;52.182;8.780;2023-08-30T04:46:37;14.10;99.90
36790;DHT22;22740;52.182;8.780;2023-08-30T04:52:39;14.00;99.90
36790;DHT22;22740;52.182;8.780;2023-08-30T04:58:41;14.00;99.90
36790;DHT22;22740;52.182;8.780;2023-08-30T05:04:43;13.90;99.90
36790;DHT22;22740;52.182;8.780;2023-08-30T05:10:47;13.90;99.90
36790;DHT22;22740;52.182;8.780;2023-08-30T05:16:50;14.10;99.90
36790;DHT22;22740;52.182;8.780;2023-08-30T05:22:53;14.20;99.90
36790;DHT22;22740;52.182;8.780;2023-08-30T05:28:55;14.10;99.90
36790;DHT22;22740;52.182;8.780;2023-08-30T05:34:58;14.20;99.90
36790;DHT22;22740;52.182;8.780;2023-08-30T05:41:00;14.00;99.90
36790;DHT22;22740;52.182;8.780;2023-08-30T05:47:02;14.00;99.90
36790;DHT22;22740;52.182;8.780;2023-08-30T05:53:06;14.00;99.90
36790;DHT22;22740;52.182;8.780;2023-08-30T05:59:11;14.00;99.90
36790;DHT22;22740;52.182;8.780;2023-08-30T06:05:15;14.10;99.90
36790;DHT22;22740;52.182;8.780;2023-08-30T06:11:17;14.10;99.90
36790;DHT22;22740;52.182;8.780;2023-08-30T06:17:19;14.10;99.90
36790;DHT22;22740;52.182;8.780;2023-08-30T06:23:20;14.20;99.90
36790;DHT22;22740;52.182;8.780;2023-08-30T06:29:22;14.20;99.90
36790;DHT22;22740;52.182;8.780;2023-08-30T06:35:24;14.40;99.90
36790;DHT22;22740;52.182;8.780;2023-08-30T06:41:26;14.50;99.90
36790;DHT22;22740;52.182;8.780;2023-08-30T06:47:28;14.70;99.90
36790;DHT22;22740;52.182;8.780;2023-08-30T06:53:30;14.80;99.90
36790;DHT22;22740;52.182;8.780;2023-08-30T06:59:32;14.90;99.90
36790;DHT22;22740;52.182;8.780;2023-08-30T07:05:34;15.00;99.90
36790;DHT22;22740;52.182;8.780;2023-08-30T07:11:38;15.20;99.90
36790;DHT22;22740;52.182;8.780;2023-08-30T07:17:40;15.40;99.90
36790;DHT22;22740;52.182;8.780;2023-08-30T07:23:57;15.60;99.90
36790;DHT22;22740;52.182;8.780;2023-08-30T07:30:00;15.60;99.90
36790;DHT22;22740;52.182;8.780;2023-08-30T07:36:04;15.80;99.90
36790;DHT22;22740;52.182;8.780;2023-08-30T07:42:07;15.80;99.90
36790;DHT22;22740;52.182;8.780;2023-08-30T07:48:09;16.00;99.90
36790;DHT22;22740;52.182;8.780;2023-08-30T07:54:11;15.90;99.90
36790;DHT22;22740;52.182;8.780;2023-08-30T08:00:13;16.00;99.90
36790;DHT22;22740;52.182;8.780;2023-08-30T08:06:16;16.10;99.90
36790;DHT22;22740;52.182;8.780;2023-08-30T08:12:18;16.30;99.90
36790;DHT22;22740;52.182;8.780;2023-08-30T08:18:20;16.40;99.90
36790;DHT22;22740;52.182;8.780;2023-08-30T08:24:22;16.50;99.90
36790;DHT22;22740;52.182;8.780;2023-08-30T08:30:24;16.60;99.90
36790;DHT22;22740;52.182;8.780;2023-08-30T08:36:25;16.80;99.90
36790;DHT22;22740;52.182;8.780;2023-08-30T08:42:27;17.00;99.90
36790;DHT22;22740;52.182;8.780;2023-08-30T08:48:31;17.10;99.90
36790;DHT22;22740;52.182;8.780;2023-08-30T08:54:38;17.20;99.90
36790;DHT22;22740;52.182;8.780;2023-08-30T09:00:44;17.30;99.90
36790;DHT22;22740;52.182;8.780;2023-08-30T09:06:46;17.40;99.90
36790;DHT22;22740;52.182;8.780;2023-08-30T09:12:49;17.90;99.90
36790;DHT22;22740;52.182;8.780;2023-08-30T09:18:58;18.10;99.90
36790;DHT22;22740;52.182;8.780;2023-08-30T09:25:21;18.40;99.90
36790;DHT22;22740;52.182;8.780;2023-08-30T09:31:32;18.80;99.90
36790;DHT22;22740;52.182;8.780;2023-08-30T09:37:34;19.00;99.90
36790;DHT22;22740;52.182;8.780;2023-08-30T09:43:41;19.00;99.90
36790;DHT22;22740;52.182;8.780;2023-08-30T09:49:45;19.00;99.90
36790;DHT22;22740;52.182;8.780;2023-08-30T09:55:48;19.30;99.90
36790;DHT22;22740;52.182;8.780;2023-08-30T10:01:52;19.90;99.90
36790;DHT22;22740;52.182;8.780;2023-08-30T10:07:55;20.10;99.90
36790;DHT22;22740;52.182;8.780;2023-08-30T10:13:58;20.20;99.90
36790;DHT22;22740;52.182;8.780;2023-08-30T10:20:06;20.40;99.90
36790;DHT22;22740;52.182;8.780;2023-08-30T10:26:09;20.50;99.90
36790;DHT22;22740;52.182;8.780;2023-08-30T10:32:11;20.30;99.90
36790;DHT22;22740;52.182;8.780;2023-08-30T10:38:26;20.10;99.90
36790;DHT22;22740;52.182;8.780;2023-08-30T10:44:29;20.40;99.90
36790;DHT22;22740;52.182;8.780;2023-08-30T10:50:32;20.50;99.90
36790;DHT22;22740;52.182;8.780;2023-08-30T10:56:34;20.30;99.90
36790;DHT22;22740;52.182;8.780;2023-08-30T11:02:37;20.20;99.90
36790;DHT22;22740;52.182;8.780;2023-08-30T11:08:42;19.90;99.90
36790;DHT22;22740;52.182;8.780;2023-08-30T11:14:48;19.50;99.90
36790;DHT22;22740;52.182;8.780;2023-08-30T11:20:53;19.10;99.90
36790;DHT22;22740;52.182;8.780;2023-08-30T11:26:55;18.80;99.90
36790;DHT22;22740;52.182;8.780;2023-08-30T11:33:00;18.50;99.90
36790;DHT22;22740;52.182;8.780;2023-08-30T11:39:04;18.40;99.90
36790;DHT22;22740;52.182;8.780;2023-08-30T11:45:06;18.30;99.90
36790;DHT22;22740;52.182;8.780;2023-08-30T11:51:08;18.40;99.90
36790;DHT22;22740;52.182;8.780;2023-08-30T11:57:10;18.50;99.90
36790;DHT22;22740;52.182;8.780;2023-08-30T12:03:14;18.60;99.90
36790;DHT22;22740;52.182;8.780;2023-08-30T12:09:19;18.60;99.90
36790;DHT22;22740;52.182;8.780;2023-08-30T12:15:24;18.60;99.90
36790;DHT22;22740;52.182;8.780;2023-08-30T12:21:28;18.60;99.90
36790;DHT22;22740;52.182;8.780;2023-08-30T12:27:40;18.70;99.90
36790;DHT22;22740;52.182;8.780;2023-08-30T12:33:44;18.70;99.90
36790;DHT22;22740;52.182;8.780;2023-08-30T12:39:46;18.90;99.90
36790;DHT22;22740;52.182;8.780;2023-08-30T12:45:48;18.90;99.90
36790;DHT22;22740;52.182;8.780;2023-08-30T12:51:50;18.80;99.90
36790;DHT22;22740;52.182;8.780;2023-08-30T12:57:52;18.80;99.90
36790;DHT22;22740;52.182;8.780;2023-08-30T13:03:54;18.70;99.90
36790;DHT22;22740;52.182;8.780;2023-08-30T13:09:56;18.60;99.90
36790;DHT22;22740;52.182;8.780;2023-08-30T13:15:59;18.50;99.90
36790;DHT22;22740;52.182;8.780;2023-08-30T13:22:01;18.40;99.90
36790;DHT22;22740;52.182;8.780;2023-08-30T13:28:03;18.00;99.90
36790;DHT22;22740;52.182;8.780;2023-08-30T13:34:06;17.90;99.90
36790;DHT22;22740;52.182;8.780;2023-08-30T13:40:08;17.80;99.90
36790;DHT22;22740;52.182;8.780;2023-08-30T13:46:10;17.60;99.90
36790;DHT22;22740;52.182;8.780;2023-08-30T13:52:12;17.10;99.90
36790;DHT22;22740;52.182;8.780;2023-08-30T13:58:14;16.80;99.90
36790;DHT22;22740;52.182;8.780;2023-08-30T14:04:16;16.80;99.90
36790;DHT22;22740;52.182;8.780;2023-08-30T14:10:18;16.60;99.90
36790;DHT22;22740;52.182;8.780;2023-08-30T14:16:22;16.40;99.90
36790;DHT22;22740;52.182;8.780;2023-08-30T14:22:23;16.20;99.90
36790;DHT22;22740;52.182;8.780;2023-08-30T14:28:26;16.10;99.90
36790;DHT22;22740;52.182;8.780;2023-08-30T14:34:31;15.90;99.90
36790;DHT22;22740;52.182;8.780;2023-08-30T14:40:33;15.90;99.90
36790;DHT22;22740;52.182;8.780;2023-08-30T14:46:37;15.80;99.90
36790;DHT22;22740;52.182;8.780;2023-08-30T14:52:39;15.80;99.90
36790;DHT22;22740;52.182;8.780;2023-08-30T14:58:41;15.60;99.90
36790;DHT22;22740;52.182;8.780;2023-08-30T15:04:46;15.50;99.90
36790;DHT22;22740;52.182;8.780;2023-08-30T15:10:48;15.50;99.90
36790;DHT22;22740;52.182;8.780;2023-08-30T15:16:50;15.50;99.90
36790;DHT22;22740;52.182;8.780;2023-08-30T15:22:52;15.30;99.90
36790;DHT22;22740;52.182;8.780;2023-08-30T15:28:59;15.20;99.90
36790;DHT22;22740;52.182;8.780;2023-08-30T15:35:01;15.30;99.90
36790;DHT22;22740;52.182;8.780;2023-08-30T15:41:11;15.30;99.90
36790;DHT22;22740;52.182;8.780;2023-08-30T15:47:17;15.30;99.90
36790;DHT22;22740;52.182;8.780;2023-08-30T15:53:19;15.30;99.90
36790;DHT22;22740;52.182;8.780;2023-08-30T15:59:21;15.30;99.90
36790;DHT22;22740;52.182;8.780;2023-08-30T16:05:23;15.20;99.90
36790;DHT22;22740;52.182;8.780;2023-08-30T16:11:25;15.10;99.90
36790;DHT22;22740;52.182;8.780;2023-08-30T16:17:27;15.10;99.90
36790;DHT22;22740;52.182;8.780;2023-08-30T16:23:29;15.20;99.90
36790;DHT22;22740;52.182;8.780;2023-08-30T16:29:35;15.10;99.90
36790;DHT22;22740;52.182;8.780;2023-08-30T16:35:37;15.00;99.90
36790;DHT22;22740;52.182;8.780;2023-08-30T16:41:39;15.00;99.90
36790;DHT22;22740;52.182;8.780;2023-08-30T16:47:41;14.90;99.90
36790;DHT22;22740;52.182;8.780;2023-08-30T16:53:48;14.90;99.90
36790;DHT22;22740;52.182;8.780;2023-08-30T16:59:50;14.90;99.90
36790;DHT22;22740;52.182;8.780;2023-08-30T17:05:52;14.90;99.90
36790;DHT22;22740;52.182;8.780;2023-08-30T17:11:54;14.90;99.90
36790;DHT22;22740;52.182;8.780;2023-08-30T17:17:55;14.80;99.90
36790;DHT22;22740;52.182;8.780;2023-08-30T17:23:58;14.80;99.90
36790;DHT22;22740;52.182;8.780;2023-08-30T17:30:01;14.70;99.90
36790;DHT22;22740;52.182;8.780;2023-08-30T17:36:04;14.60;99.90
36790;DHT22;22740;52.182;8.780;2023-08-30T17:42:07;14.60;99.90
36790;DHT22;22740;52.182;8.780;2023-08-30T17:48:09;14.60;99.90
36790;DHT22;22740;52.182;8.780;2023-08-30T17:54:14;14.50;99.90
36790;DHT22;22740;52.182;8.780;2023-08-30T18:00:18;14.50;99.90
36790;DHT22;22740;52.182;8.780;2023-08-30T18:06:22;14.50;99.90
36790;DHT22;22740;52.182;8.780;2023-08-30T18:12:25;14.40;99.90
36790;DHT22;22740;52.182;8.780;2023-08-30T18:18:27;14.30;99.90
36790;DHT22;22740;52.182;8.780;2023-08-30T18:24:29;14.30;99.90
36790;DHT22;22740;52.182;8.780;2023-08-30T18:30:32;14.40;99.90
36790;DHT22;22740;52.182;8.780;2023-08-30T18:36:35;14.20;99.90
36790;DHT22;22740;52.182;8.780;2023-08-30T18:42:37;14.20;99.90
36790;DHT22;22740;52.182;8.780;2023-08-30T18:48:39;14.20;99.90
36790;DHT22;22740;52.182;8.780;2023-08-30T18:54:41;14.30;99.90
36790;DHT22;22740;52.182;8.780;2023-08-30T19:00:49;14.20;99.90
36790;DHT22;22740;52.182;8.780;2023-08-30T19:06:51;14.10;99.90
36790;DHT22;22740;52.182;8.780;2023-08-30T19:12:53;14.20;99.90
36790;DHT22;22740;52.182;8.780;2023-08-30T19:18:55;14.10;99.90
36790;DHT22;22740;52.182;8.780;2023-08-30T19:24:56;14.20;99.90
36790;DHT22;22740;52.182;8.780;2023-08-30T19:30:58;14.10;99.90
36790;DHT22;22740;52.182;8.780;2023-08-30T19:37:00;14.00;99.90
36790;DHT22;22740;52.182;8.780;2023-08-30T19:43:02;14.00;99.90
36790;DHT22;22740;52.182;8.780;2023-08-30T19:49:04;14.00;99.90
36790;DHT22;22740;52.182;8.780;2023-08-30T19:55:06;13.90;99.90
36790;DHT22;22740;52.182;8.780;2023-08-30T20:01:11;14.00;99.90
36790;DHT22;22740;52.182;8.780;2023-08-30T20:07:15;14.00;99.90
36790;DHT22;22740;52.182;8.780;2023-08-30T20:13:17;14.00;99.90
36790;DHT22;22740;52.182;8.780;2023-08-30T20:19:19;14.00;99.90
36790;DHT22;22740;52.182;8.780;2023-08-30T20:25:21;14.00;99.90
36790;DHT22;22740;52.182;8.780;2023-08-30T20:31:23;14.00;99.90
36790;DHT22;22740;52.182;8.780;2023-08-30T20:37:25;13.90;99.90
36790;DHT22;22740;52.182;8.780;2023-08-30T20:43:27;13.90;99.90
36790;DHT22;22740;52.182;8.780;2023-08-30T20:49:29;13.90;99.90
36790;DHT22;22740;52.182;8.780;2023-08-30T20:55:32;13.90;99.90
36790;DHT22;22740;52.182;8.780;2023-08-30T21:01:40;13.80;99.90
36790;DHT22;22740;52.182;8.780;2023-08-30T21:07:42;13.80;99.90
36790;DHT22;22740;52.182;8.780;2023-08-30T21:13:44;13.80;99.90
36790;DHT22;22740;52.182;8.780;2023-08-30T21:19:46;13.70;99.90
36790;DHT22;22740;52.182;8.780;2023-08-30T21:25:48;13.70;99.90
36790;DHT22;22740;52.182;8.780;2023-08-30T21:31:50;13.70;99.90
36790;DHT22;22740;52.182;8.780;2023-08-30T21:37:52;13.60;99.90
36790;DHT22;22740;52.182;8.780;2023-08-30T21:43:53;13.50;99.90
36790;DHT22;22740;52.182;8.780;2023-08-30T21:49:56;13.40;99.90
36790;DHT22;22740;52.182;8.780;2023-08-30T21:56:01;13.40;99.90
36790;DHT22;22740;52.182;8.780;2023-08-30T22:02:04;13.50;99.90
36790;DHT22;22740;52.182;8.780;2023-08-30T22:08:06;13.40;99.90
36790;DHT22;22740;52.182;8.780;2023-08-30T22:14:09;13.40;99.90
36790;DHT22;22740;52.182;8.780;2023-08-30T22:20:12;13.30;99.90
36790;DHT22;22740;52.182;8.780;2023-08-30T22:26:16;13.30;99.90
36790;DHT22;22740;52.182;8.780;2023-08-30T22:32:18;13.30;99.90
36790;DHT22;22740;52.182;8.780;2023-08-30T22:38:20;13.30;99.90
36790;DHT22;22740;52.182;8.780;2023-08-30T22:44:22;13.20;99.90
36790;DHT22;22740;52.182;8.780;2023-08-30T22:50:24;13.20;99.90
36790;DHT22;22740;52.182;8.780;2023-08-30T22:56:27;13.10;99.90
36790;DHT22;22740;52.182;8.780;2023-08-30T23:02:29;13.00;99.90
36790;DHT22;22740;52.182;8.780;2023-08-30T23:08:30;12.90;99.90
36790;DHT22;22740;52.182;8.780;2023-08-30T23:14:33;13.00;99.90
36790;DHT22;22740;52.182;8.780;2023-08-30T23:20:35;12.90;99.90
36790;DHT22;22740;52.182;8.780;2023-08-30T23:26:38;13.00;99.90
36790;DHT22;22740;52.182;8.780;2023-08-30T23:32:40;12.80;99.90
36790;DHT22;22740;52.182;8.780;2023-08-30T23:38:42;12.90;99.90
36790;DHT22;22740;52.182;8.780;2023-08-30T23:44:48;12.90;99.90
36790;DHT22;22740;52.182;8.780;2023-08-30T23:50:50;12.80;99.90
36790;DHT22;22740;52.182;8.780;2023-08-30T23:56:52;12.80;99.90
